Time;durP1;ratioP1;P1;durP2;ratioP2;P2;SDS_P1;SDS_P2;PMS_P1;PMS_P2;Temp;Humidity;BMP_temperature;BMP_pressure;BME280_temperature;BME280_humidity;BME280_pressure;Samples;Min_cycle;Max_cycle;Signal;HPM_P1;HPM_P2
2023/01/15 00:01:01;;;;;;;51.22;6.35;;;5.70;99.90;;;;;;4975120;28;20114;-67
2023/01/15 00:03:26;;;;;;;39.92;5.03;;;5.80;99.90;;;;;;4975042;28;20065;-67
2023/01/15 00:05:52;;;;;;;43.33;4.90;;;5.70;99.90;;;;;;4974730;28;20058;-67
2023/01/15 00:08:18;;;;;;;61.95;5.53;;;5.70;99.90;;;;;;4974884;28;20449;-67
2023/01/15 00:10:43;;;;;;;44.63;5.57;;;5.70;99.90;;;;;;4974709;28;20105;-67
2023/01/15 00:13:09;;;;;;;53.10;7.07;;;5.70;99.90;;;;;;4974936;28;20030;-67
2023/01/15 00:15:35;;;;;;;42.95;5.05;;;5.70;99.90;;;;;;4974636;28;20031;-67
2023/01/15 00:18:00;;;;;;;45.97;5.68;;;5.80;99.90;;;;;;4974704;28;20154;-67
2023/01/15 00:20:26;;;;;;;44.80;5.75;;;5.80;99.90;;;;;;4974797;28;20031;-67
2023/01/15 00:22:52;;;;;;;43.95;4.75;;;5.80;99.90;;;;;;4974822;28;20031;-67
2023/01/15 00:28:02;;;;;;;52.22;5.57;;;5.80;99.90;;;;;;4955652;29;20030;-67
2023/01/15 00:30:27;;;;;;;48.80;6.22;;;5.80;99.90;;;;;;4955448;28;20024;-67
2023/01/15 00:32:53;;;;;;;38.03;6.82;;;5.70;99.90;;;;;;4957150;28;20546;-67
2023/01/15 00:35:21;;;;;;;61.20;6.90;;;5.70;99.90;;;;;;4962064;28;20027;-67
2023/01/15 00:37:47;;;;;;;39.92;6.35;;;5.70;99.90;;;;;;4974738;28;20134;-67
2023/01/15 00:40:15;;;;;;;56.17;7.25;;;5.70;99.90;;;;;;4973163;28;20125;-67
2023/01/15 00:42:40;;;;;;;61.75;6.50;;;5.70;99.90;;;;;;4974643;28;20041;-67
2023/01/15 00:45:10;;;;;;;36.53;4.45;;;5.70;99.90;;;;;;4974076;28;20039;-67
2023/01/15 00:47:40;;;;;;;52.75;6.85;;;5.80;99.90;;;;;;4974429;28;20027;-67
2023/01/15 00:50:09;;;;;;;40.33;6.45;;;5.90;99.90;;;;;;4974243;28;20027;-67
2023/01/15 00:52:35;;;;;;;51.30;6.28;;;6.00;99.90;;;;;;4974301;28;20023;-67
2023/01/15 00:55:01;;;;;;;38.15;6.63;;;6.00;99.90;;;;;;4973108;28;20086;-67
2023/01/15 00:57:27;;;;;;;34.72;5.72;;;6.00;99.90;;;;;;4974155;28;20026;-67
2023/01/15 00:59:53;;;;;;;37.88;6.13;;;5.80;99.90;;;;;;4965439;28;20038;-67
2023/01/15 01:02:19;;;;;;;40.85;5.57;;;5.70;99.90;;;;;;4960454;28;20035;-67
2023/01/15 01:04:44;;;;;;;40.03;5.70;;;5.70;99.90;;;;;;4965149;28;20038;-67
2023/01/15 01:07:10;;;;;;;29.75;3.40;;;5.70;99.90;;;;;;4972988;28;20023;-67
2023/01/15 01:09:35;;;;;;;35.30;3.72;;;5.60;99.90;;;;;;4977910;28;20490;-67
2023/01/15 01:12:01;;;;;;;24.98;3.80;;;5.60;99.90;;;;;;4977990;28;20038;-67
2023/01/15 01:14:27;;;;;;;20.75;4.40;;;5.50;99.90;;;;;;4977044;28;20022;-67
2023/01/15 01:16:53;;;;;;;42.70;3.92;;;5.50;99.90;;;;;;4960463;28;20053;-67
2023/01/15 01:19:20;;;;;;;27.85;3.65;;;5.60;99.90;;;;;;4958469;28;20028;-67
2023/01/15 01:21:47;;;;;;;31.63;3.80;;;5.60;99.90;;;;;;4958421;29;20090;-67
2023/01/15 01:24:15;;;;;;;24.70;3.08;;;5.60;99.90;;;;;;4958413;28;20046;-67
2023/01/15 01:26:42;;;;;;;25.20;4.35;;;5.70;99.90;;;;;;4958423;29;20031;-67
2023/01/15 01:29:11;;;;;;;30.52;4.28;;;5.60;99.90;;;;;;4958651;28;20058;-67
2023/01/15 01:31:37;;;;;;;21.13;3.20;;;5.40;99.90;;;;;;4958255;29;20031;-67
2023/01/15 01:34:03;;;;;;;37.42;4.55;;;5.30;99.90;;;;;;4971262;28;20082;-67
2023/01/15 01:36:31;;;;;;;34.22;4.20;;;5.20;99.90;;;;;;4977581;28;20033;-67
2023/01/15 01:38:57;;;;;;;30.23;3.80;;;5.30;99.90;;;;;;4971388;28;20400;-67
2023/01/15 01:41:23;;;;;;;44.88;5.82;;;5.30;99.90;;;;;;4958411;29;20027;-67
2023/01/15 01:44:26;;;;;;;42.42;5.43;;;5.40;99.90;;;;;;4958753;29;20054;-67
2023/01/15 01:46:52;;;;;;;44.80;5.40;;;5.60;99.90;;;;;;4957986;28;20031;-67
2023/01/15 01:49:20;;;;;;;49.97;4.78;;;5.60;99.90;;;;;;4957777;28;20054;-67
2023/01/15 01:51:52;;;;;;;40.78;5.78;;;5.70;99.90;;;;;;4974317;28;20034;-67
2023/01/15 01:54:21;;;;;;;43.28;5.13;;;5.80;99.90;;;;;;4977315;28;20026;-67
2023/01/15 01:56:48;;;;;;;41.63;4.80;;;5.80;99.90;;;;;;4977317;28;20037;-67
2023/01/15 01:59:16;;;;;;;38.40;5.93;;;5.70;99.90;;;;;;4977460;28;20031;-67
2023/01/15 02:01:41;;;;;;;27.52;4.68;;;5.50;99.90;;;;;;4977080;28;20637;-67
2023/01/15 02:04:09;;;;;;;46.63;7.55;;;5.40;99.90;;;;;;4977069;28;20067;-66
2023/01/15 02:06:36;;;;;;;46.35;7.30;;;5.30;99.90;;;;;;4977107;28;20467;-66
2023/01/15 02:09:02;;;;;;;40.15;5.60;;;5.30;99.90;;;;;;4977381;28;20125;-67
2023/01/15 02:11:29;;;;;;;49.75;6.78;;;5.20;99.90;;;;;;4977318;28;20069;-66
2023/01/15 02:14:19;;;;;;;58.50;5.35;;;5.40;99.90;;;;;;4976689;28;20090;-67
2023/01/15 02:17:09;;;;;;;39.25;5.45;;;5.40;99.90;;;;;;4977083;28;20029;-67
2023/01/15 02:19:48;;;;;;;45.97;5.32;;;5.50;99.90;;;;;;4977398;28;20042;-66
2023/01/15 02:22:41;;;;;;;47.75;8.55;;;5.70;99.90;;;;;;4977060;28;20041;-67
2023/01/15 02:25:13;;;;;;;40.75;5.50;;;5.70;99.90;;;;;;4977001;28;20023;-67
2023/01/15 02:27:44;;;;;;;27.55;3.80;;;5.50;99.90;;;;;;4976891;28;20030;-67
2023/01/15 02:30:22;;;;;;;22.67;2.42;;;5.30;99.90;;;;;;4976867;28;20025;-67
2023/01/15 02:32:54;;;;;;;20.77;2.65;;;5.20;99.90;;;;;;4976574;28;20483;-67
2023/01/15 02:35:26;;;;;;;29.77;2.38;;;5.10;99.90;;;;;;4976473;28;20026;-67
2023/01/15 02:37:55;;;;;;;29.15;3.65;;;5.10;99.90;;;;;;4976842;28;20034;-67
2023/01/15 02:40:23;;;;;;;26.67;3.42;;;5.20;99.90;;;;;;4976393;28;20042;-67
2023/01/15 02:42:49;;;;;;;30.52;4.65;;;5.30;99.90;;;;;;4976546;28;20023;-67
2023/01/15 02:45:23;;;;;;;35.25;4.97;;;5.30;99.90;;;;;;4976581;28;20038;-67
2023/01/15 02:47:50;;;;;;;;;;;5.30;99.90;;;;;;4976948;28;20023;-67
2023/01/15 02:50:21;;;;;;;33.92;4.97;;;5.30;99.90;;;;;;4975943;28;20369;-67
2023/01/15 02:52:50;;;;;;;52.78;5.93;;;5.30;99.90;;;;;;4976249;28;20050;-67
2023/01/15 02:55:29;;;;;;;48.60;5.65;;;5.30;99.90;;;;;;4976357;28;20030;-67
2023/01/15 02:57:59;;;;;;;46.08;5.82;;;5.40;99.90;;;;;;4976340;28;20027;-67
2023/01/15 03:00:27;;;;;;;55.22;6.78;;;5.50;99.90;;;;;;4976017;28;20031;-67
2023/01/15 03:03:01;;;;;;;53.08;7.07;;;5.50;99.90;;;;;;4976481;28;20475;-67
2023/01/15 03:05:40;;;;;;;58.30;6.22;;;5.50;99.90;;;;;;4976507;28;20085;-67
2023/01/15 03:08:07;;;;;;;56.05;6.80;;;5.50;99.90;;;;;;4976082;28;20443;-67
2023/01/15 03:10:48;;;;;;;48.45;7.25;;;5.60;99.90;;;;;;4975934;28;20038;-67
2023/01/15 03:13:19;;;;;;;51.58;8.40;;;5.60;99.90;;;;;;4974821;28;20026;-67
2023/01/15 03:18:51;;;;;;;40.72;8.77;;;5.80;99.90;;;;;;4975794;28;20059;-67
2023/01/15 03:21:21;;;;;;;64.55;7.32;;;5.80;99.90;;;;;;4975648;28;20033;-67
2023/01/15 03:23:52;;;;;;;57.97;6.47;;;5.80;99.90;;;;;;4975269;28;20058;-67
2023/01/15 03:26:17;;;;;;;63.90;7.88;;;5.80;99.90;;;;;;4975858;28;20438;-67
2023/01/15 03:28:44;;;;;;;41.42;6.88;;;5.80;99.90;;;;;;4975488;28;20023;-67
2023/01/15 03:31:10;;;;;;;55.17;7.60;;;5.80;99.90;;;;;;4975437;28;20027;-67
2023/01/15 03:33:35;;;;;;;65.20;8.02;;;5.80;99.90;;;;;;4974154;28;20579;-67
2023/01/15 03:36:01;;;;;;;55.53;7.60;;;5.90;99.90;;;;;;4975900;28;20042;-67
2023/01/15 03:38:34;;;;;;;53.35;7.95;;;5.80;99.90;;;;;;4975303;28;20090;-68
2023/01/15 03:41:19;;;;;;;52.10;6.50;;;5.90;99.90;;;;;;4975234;28;20080;-67
2023/01/15 03:44:02;;;;;;;72.22;9.02;;;5.90;99.90;;;;;;4975521;28;20387;-67
2023/01/15 03:47:03;;;;;;;53.00;7.18;;;5.90;99.90;;;;;;4974045;28;20030;-67
2023/01/15 03:49:36;;;;;;;57.40;7.05;;;5.80;99.90;;;;;;4975431;28;20022;-67
2023/01/15 03:52:39;;;;;;;70.57;7.65;;;5.90;99.90;;;;;;4973941;28;20033;-67
2023/01/15 03:55:48;;;;;;;57.42;8.23;;;5.80;99.90;;;;;;4975092;28;20070;-67
2023/01/15 03:58:22;;;;;;;55.45;6.47;;;5.90;99.90;;;;;;4973702;28;20126;-67
2023/01/15 04:00:51;;;;;;;55.45;6.40;;;5.80;99.90;;;;;;4973695;28;20085;-67
2023/01/15 04:03:19;;;;;;;50.58;6.53;;;5.80;99.90;;;;;;4968311;28;20059;-67
2023/01/15 04:05:46;;;;;;;59.83;8.02;;;5.80;99.90;;;;;;4961606;28;20035;-67
2023/01/15 04:08:13;;;;;;;42.95;5.90;;;5.90;99.90;;;;;;4958960;28;20030;-67
2023/01/15 04:10:53;;;;;;;61.67;5.95;;;5.90;99.90;;;;;;4974681;28;20018;-67
2023/01/15 04:13:19;;;;;;;59.15;6.72;;;5.90;99.90;;;;;;4975063;28;20387;-67
2023/01/15 04:15:45;;;;;;;48.33;6.15;;;5.90;99.90;;;;;;4973513;28;20023;-67
2023/01/15 04:18:10;;;;;;;57.20;7.82;;;6.00;99.90;;;;;;4974685;28;20394;-67
2023/01/15 04:20:36;;;;;;;61.00;10.85;;;5.90;99.90;;;;;;4974951;28;20473;-67
2023/01/15 04:23:01;;;;;;;54.58;7.15;;;5.90;99.90;;;;;;4974677;28;20031;-67
2023/01/15 04:25:27;;;;;;;63.40;7.80;;;5.90;99.90;;;;;;4974522;28;20496;-67
2023/01/15 04:27:54;;;;;;;38.92;7.13;;;5.90;99.90;;;;;;4974575;28;20114;-67
2023/01/15 04:30:19;;;;;;;63.95;7.28;;;6.00;99.90;;;;;;4974823;28;20422;-67
2023/01/15 04:32:47;;;;;;;55.35;6.95;;;5.90;99.90;;;;;;4974843;28;20031;-67
2023/01/15 04:35:13;;;;;;;45.75;6.65;;;5.90;99.90;;;;;;4974677;28;20034;-67
2023/01/15 04:37:38;;;;;;;65.35;7.68;;;5.90;99.90;;;;;;4974587;28;20031;-67
2023/01/15 04:40:05;;;;;;;62.45;6.47;;;5.90;99.90;;;;;;4974620;28;20114;-67
2023/01/15 04:45:15;;;;;;;60.15;7.20;;;5.80;99.90;;;;;;4974874;28;20062;-67
2023/01/15 04:47:40;;;;;;;44.95;6.43;;;5.80;99.90;;;;;;4974837;28;20031;-67
2023/01/15 04:50:06;;;;;;;45.45;5.53;;;5.80;99.90;;;;;;4974573;28;20090;-66
2023/01/15 04:52:32;;;;;;;40.95;5.93;;;5.70;99.90;;;;;;4974888;28;20034;-67
2023/01/15 04:54:57;;;;;;;55.10;7.32;;;5.60;99.90;;;;;;4974647;28;20114;-67
2023/01/15 04:57:23;;;;;;;53.33;6.38;;;5.40;99.90;;;;;;4974649;28;20062;-67
2023/01/15 04:59:48;;;;;;;57.45;7.47;;;5.30;99.90;;;;;;4972923;28;20050;-67
2023/01/15 05:02:14;;;;;;;51.08;5.57;;;5.20;99.90;;;;;;4973088;28;20031;-67
2023/01/15 05:04:40;;;;;;;49.47;5.93;;;5.20;99.90;;;;;;4973918;28;20054;-67
2023/01/15 05:07:05;;;;;;;69.65;7.78;;;5.20;99.90;;;;;;4973022;28;20019;-67
2023/01/15 05:09:31;;;;;;;48.30;5.75;;;5.20;99.90;;;;;;4974001;28;20450;-67
2023/01/15 05:11:57;;;;;;;54.00;5.78;;;5.40;99.90;;;;;;4974702;28;20386;-67
2023/01/15 05:14:22;;;;;;;58.75;6.93;;;5.30;99.90;;;;;;4974172;28;20036;-67
2023/01/15 05:16:48;;;;;;;49.35;6.43;;;5.30;99.90;;;;;;4974181;28;20422;-67
2023/01/15 05:19:13;;;;;;;53.55;6.88;;;5.20;99.90;;;;;;4974346;28;20046;-67
2023/01/15 05:21:41;;;;;;;70.68;9.20;;;5.20;99.90;;;;;;4974228;28;20045;-67
2023/01/15 05:24:11;;;;;;;55.50;6.95;;;5.30;99.90;;;;;;4974316;28;20034;-67
2023/01/15 05:26:37;;;;;;;50.22;7.65;;;5.30;99.90;;;;;;4972479;28;20034;-67
2023/01/15 05:29:03;;;;;;;62.10;6.22;;;5.30;99.90;;;;;;4974069;28;20398;-67
2023/01/15 05:31:29;;;;;;;61.45;9.10;;;5.30;99.90;;;;;;4974210;28;20011;-67
2023/01/15 05:33:56;;;;;;;43.13;7.35;;;5.40;99.90;;;;;;4973989;28;20018;-66
2023/01/15 05:36:28;;;;;;;61.13;6.90;;;5.40;99.90;;;;;;4973928;28;20038;-66
2023/01/15 05:38:56;;;;;;;48.75;6.32;;;5.40;99.90;;;;;;4974212;28;20114;-66
2023/01/15 05:44:09;;;;;;;50.75;5.55;;;5.30;99.90;;;;;;4957727;28;20155;-67
2023/01/15 05:46:37;;;;;;;65.97;6.88;;;5.20;99.90;;;;;;4954887;28;20106;-67
2023/01/15 05:49:05;;;;;;;48.45;7.20;;;5.40;99.90;;;;;;4959415;28;20031;-67
2023/01/15 05:51:33;;;;;;;56.00;7.05;;;5.40;99.90;;;;;;4958128;28;20023;-67
2023/01/15 05:53:58;;;;;;;55.60;8.23;;;5.40;99.90;;;;;;4957927;29;20031;-67
2023/01/15 05:56:25;;;;;;;68.72;11.57;;;5.50;99.90;;;;;;4958992;29;20066;-67
2023/01/15 05:58:51;;;;;;;58.95;8.93;;;5.50;99.90;;;;;;4959802;28;20054;-67
2023/01/15 06:01:16;;;;;;;55.63;6.72;;;5.50;99.90;;;;;;4958592;28;20015;-67
2023/01/15 06:03:42;;;;;;;57.50;6.30;;;5.50;99.90;;;;;;4962577;28;20376;-67
2023/01/15 06:06:12;;;;;;;36.30;6.55;;;5.60;99.90;;;;;;4977019;28;20022;-67
2023/01/15 06:08:38;;;;;;;46.92;8.10;;;5.50;99.90;;;;;;4976834;28;20078;-67
2023/01/15 06:11:05;;;;;;;52.08;6.95;;;5.50;99.90;;;;;;4976861;28;20111;-67
2023/01/15 06:13:31;;;;;;;54.63;6.40;;;5.60;99.90;;;;;;4977189;28;20023;-67
2023/01/15 06:15:58;;;;;;;51.45;6.85;;;5.60;99.90;;;;;;4976885;28;20058;-67
2023/01/15 06:18:24;;;;;;;39.92;6.50;;;5.60;99.90;;;;;;4977050;28;20111;-67
2023/01/15 06:20:49;;;;;;;64.68;7.57;;;5.60;99.90;;;;;;4974947;28;20494;-67
2023/01/15 06:23:17;;;;;;;56.65;9.45;;;5.70;99.90;;;;;;4976766;28;20038;-67
2023/01/15 06:25:42;;;;;;;59.78;6.82;;;5.70;99.90;;;;;;4975275;28;20065;-67
2023/01/15 06:28:09;;;;;;;70.68;9.15;;;5.80;99.90;;;;;;4976593;28;20023;-67
2023/01/15 06:30:37;;;;;;;59.65;8.32;;;5.80;99.90;;;;;;4976489;28;20396;-67
2023/01/15 06:33:03;;;;;;;51.38;6.45;;;5.80;99.90;;;;;;4976407;28;20082;-67
2023/01/15 06:35:28;;;;;;;60.63;8.85;;;5.80;99.90;;;;;;4977616;28;20031;-67
2023/01/15 06:37:54;;;;;;;63.45;6.50;;;5.80;99.90;;;;;;4974474;28;20030;-67
2023/01/15 06:40:20;;;;;;;56.72;8.07;;;5.80;99.90;;;;;;4976526;28;20066;-67
2023/01/15 06:48:22;;;;;;;66.30;8.73;;;5.70;99.90;;;;;;4963562;28;20069;-67
2023/01/15 06:50:52;;;;;;;71.05;7.45;;;5.70;99.90;;;;;;4976137;28;20473;-67
2023/01/15 06:53:18;;;;;;;54.33;8.80;;;5.70;99.90;;;;;;4957385;29;20078;-67
2023/01/15 06:55:43;;;;;;;52.03;6.85;;;5.70;99.90;;;;;;4955593;28;20023;-67
2023/01/15 06:58:09;;;;;;;74.53;8.35;;;5.60;99.90;;;;;;4969151;28;20030;-67
2023/01/15 07:00:35;;;;;;;42.33;6.45;;;5.60;99.90;;;;;;4969976;23;20380;-67
2023/01/15 07:03:02;;;;;;;53.38;5.65;;;5.60;99.90;;;;;;4956609;28;20030;-67
2023/01/15 07:05:28;;;;;;;48.95;6.45;;;5.50;99.90;;;;;;4956482;28;20082;-67
2023/01/15 07:07:54;;;;;;;31.58;5.53;;;5.50;99.90;;;;;;4956624;28;20026;-67
2023/01/15 07:10:19;;;;;;;51.80;7.68;;;5.50;99.90;;;;;;4956705;28;20031;-67
2023/01/15 07:12:45;;;;;;;44.88;5.75;;;5.50;99.90;;;;;;4956387;28;20027;-67
2023/01/15 07:15:11;;;;;;;33.03;6.15;;;5.50;99.90;;;;;;4956508;28;20487;-67
2023/01/15 07:17:36;;;;;;;45.47;6.13;;;5.60;99.90;;;;;;4956390;28;20533;-67
2023/01/15 07:20:02;;;;;;;55.03;6.05;;;5.60;99.90;;;;;;4956359;28;20034;-67
2023/01/15 07:22:28;;;;;;;40.97;6.35;;;5.70;99.90;;;;;;4956521;28;20028;-67
2023/01/15 07:24:53;;;;;;;53.00;6.30;;;5.80;99.90;;;;;;4956310;28;20031;-67
2023/01/15 07:27:19;;;;;;;55.33;7.15;;;5.80;99.90;;;;;;4954250;28;20544;-67
2023/01/15 07:29:45;;;;;;;49.22;7.57;;;5.70;99.90;;;;;;4939079;29;20047;-67
2023/01/15 07:32:11;;;;;;;43.85;5.63;;;5.80;99.90;;;;;;4936647;29;20528;-67
2023/01/15 07:34:36;;;;;;;37.47;6.47;;;5.80;99.90;;;;;;4952160;29;20089;-67
2023/01/15 07:37:02;;;;;;;33.70;4.53;;;5.70;99.90;;;;;;4956199;28;20039;-67
2023/01/15 07:39:28;;;;;;;42.92;6.35;;;5.70;99.90;;;;;;4946180;28;20036;-67
2023/01/15 07:50:10;;;;;;;48.40;6.53;;;5.60;99.90;;;;;;4942106;29;19917;-67
2023/01/15 07:52:35;;;;;;;48.33;5.93;;;5.60;99.90;;;;;;4937850;29;20051;-67
2023/01/15 07:55:02;;;;;;;45.25;6.15;;;5.70;99.90;;;;;;4945071;29;20475;-67
2023/01/15 07:57:28;;;;;;;46.78;9.77;;;5.70;99.90;;;;;;4956178;28;20024;-67
2023/01/15 07:59:54;;;;;;;41.88;5.13;;;5.80;99.90;;;;;;4955457;28;20038;-68
2023/01/15 08:02:19;;;;;;;38.70;5.05;;;5.70;99.90;;;;;;4956019;28;20077;-67
2023/01/15 08:04:46;;;;;;;35.15;5.53;;;5.80;99.90;;;;;;4955641;28;20110;-67
2023/01/15 08:07:13;;;;;;;34.72;4.85;;;5.80;99.90;;;;;;4955744;28;20512;-67
2023/01/15 08:09:39;;;;;;;36.33;5.47;;;5.80;99.90;;;;;;4955234;28;20058;-67
2023/01/15 08:17:35;;;;;;;48.83;5.60;;;5.80;99.90;;;;;;4956104;29;20030;-67
2023/01/15 08:20:05;;;;;;;40.67;5.38;;;5.80;99.90;;;;;;4955341;28;20058;-67
2023/01/15 08:22:31;;;;;;;37.25;5.55;;;5.70;99.90;;;;;;4955459;28;20027;-67
2023/01/15 08:24:56;;;;;;;43.70;4.90;;;5.80;99.90;;;;;;4955602;28;20032;-67
2023/01/15 08:27:22;;;;;;;50.25;5.63;;;5.70;99.90;;;;;;4955749;28;20411;-67
2023/01/15 08:29:48;;;;;;;34.15;4.60;;;5.80;99.90;;;;;;4956259;28;20019;-67
2023/01/15 08:32:13;;;;;;;40.03;5.07;;;5.80;99.90;;;;;;4955286;28;20423;-67
2023/01/15 08:34:39;;;;;;;48.85;5.20;;;5.90;99.90;;;;;;4955362;28;20035;-67
2023/01/15 08:37:04;;;;;;;45.05;5.97;;;6.00;99.90;;;;;;4955226;28;20390;-67
2023/01/15 08:39:30;;;;;;;27.77;4.40;;;6.00;99.90;;;;;;4946793;28;20059;-67
2023/01/15 08:41:56;;;;;;;36.47;5.57;;;5.80;99.90;;;;;;4936337;29;20406;-67
2023/01/15 08:44:22;;;;;;;43.05;5.43;;;5.70;99.90;;;;;;4938325;29;20060;-67
2023/01/15 08:46:49;;;;;;;43.00;6.75;;;5.60;99.90;;;;;;4936080;29;20023;-67
2023/01/15 08:49:15;;;;;;;47.72;6.32;;;5.60;99.90;;;;;;4936242;28;20035;-67
2023/01/15 08:51:42;;;;;;;29.52;5.07;;;5.60;99.90;;;;;;4955715;28;20026;-67
2023/01/15 08:54:07;;;;;;;30.83;5.80;;;5.60;99.90;;;;;;4955208;28;20057;-66
2023/01/15 08:56:33;;;;;;;34.03;5.18;;;5.20;99.90;;;;;;4954406;28;20020;-67
2023/01/15 08:59:02;;;;;;;43.47;5.07;;;5.10;99.90;;;;;;4954997;28;20031;-67
2023/01/15 09:01:27;;;;;;;35.92;4.57;;;5.10;99.90;;;;;;4955177;28;20031;-67
2023/01/15 09:03:53;;;;;;;54.15;5.95;;;5.20;99.90;;;;;;4938789;28;20070;-67
2023/01/15 09:06:18;;;;;;;37.75;5.70;;;5.30;99.90;;;;;;4953678;28;20035;-67
2023/01/15 09:08:44;;;;;;;39.38;4.38;;;5.50;99.90;;;;;;4955238;28;20471;-67
2023/01/15 09:11:11;;;;;;;33.10;4.75;;;5.50;99.90;;;;;;4954693;28;20035;-67
2023/01/15 09:13:37;;;;;;;33.75;5.55;;;5.60;99.90;;;;;;4961188;28;20023;-67
2023/01/15 09:16:06;;;;;;;25.30;4.47;;;5.60;99.90;;;;;;4956711;28;20402;-67
2023/01/15 09:18:32;;;;;;;27.23;4.30;;;5.70;99.90;;;;;;4966969;28;20105;-67
2023/01/15 09:20:58;;;;;;;34.08;5.18;;;5.70;99.90;;;;;;4954774;28;20058;-67
2023/01/15 09:23:23;;;;;;;41.28;4.32;;;5.80;99.90;;;;;;4964769;28;20546;-67
2023/01/15 09:26:01;;;;;;;34.53;5.43;;;5.80;99.90;;;;;;4977876;28;20084;-67
2023/01/15 09:28:28;;;;;;;37.42;5.90;;;5.80;99.90;;;;;;4972687;28;20024;-67
2023/01/15 09:30:53;;;;;;;43.97;4.93;;;5.90;99.90;;;;;;4958458;28;20119;-67
2023/01/15 09:33:19;;;;;;;23.60;4.35;;;5.80;99.90;;;;;;4956463;28;20063;-67
2023/01/15 09:35:44;;;;;;;42.53;5.35;;;5.80;99.90;;;;;;4955143;28;20035;-67
2023/01/15 09:38:15;;;;;;;31.13;4.80;;;5.70;99.90;;;;;;4956995;28;20027;-67
2023/01/15 09:40:55;;;;;;;33.38;4.85;;;5.70;99.90;;;;;;4945961;28;20044;-67
2023/01/15 09:43:23;;;;;;;35.10;5.70;;;5.70;99.90;;;;;;4951865;28;20431;-67
2023/01/15 09:45:52;;;;;;;41.13;5.13;;;5.60;99.90;;;;;;4957078;28;20098;-67
2023/01/15 09:48:39;;;;;;;42.42;5.10;;;5.50;99.90;;;;;;4957915;28;20030;-67
2023/01/15 09:51:28;;;;;;;29.55;5.07;;;5.40;99.90;;;;;;4971920;28;20460;-67
2023/01/15 09:54:04;;;;;;;37.20;4.55;;;5.50;99.90;;;;;;4955133;29;20380;-67
2023/01/15 09:56:33;;;;;;;33.55;4.80;;;5.60;99.90;;;;;;4958048;28;20039;-67
2023/01/15 09:59:05;;;;;;;43.80;4.95;;;5.70;99.90;;;;;;4966989;28;20034;-67
2023/01/15 10:01:33;;;;;;;26.48;4.00;;;5.60;99.90;;;;;;4974781;28;20041;-67
2023/01/15 10:04:01;;;;;;;39.05;5.55;;;5.50;99.90;;;;;;4957856;28;20479;-66
2023/01/15 10:06:42;;;;;;;40.63;4.90;;;5.50;99.90;;;;;;4957971;28;20082;-67
2023/01/15 10:09:16;;;;;;;45.47;5.22;;;5.50;99.90;;;;;;4967824;28;20027;-66
2023/01/15 10:14:58;;;;;;;25.50;4.68;;;5.70;99.90;;;;;;4967364;28;20086;-67
2023/01/15 10:17:33;;;;;;;38.95;4.88;;;5.70;99.90;;;;;;4957599;28;20035;-67
2023/01/15 10:19:59;;;;;;;33.08;5.30;;;5.60;99.90;;;;;;4974218;28;20038;-67
2023/01/15 10:22:29;;;;;;;40.08;4.50;;;5.60;99.90;;;;;;4976793;28;20031;-67
2023/01/15 10:25:02;;;;;;;25.10;4.53;;;5.60;99.90;;;;;;4953861;28;20381;-67
2023/01/15 10:27:32;;;;;;;28.92;4.50;;;5.60;99.90;;;;;;4938313;29;20469;-67
2023/01/15 10:30:27;;;;;;;29.15;3.90;;;5.70;99.90;;;;;;4945023;28;20039;-67
2023/01/15 10:33:00;;;;;;;44.35;4.45;;;5.20;99.90;;;;;;4953794;28;20055;-67
2023/01/15 10:35:55;;;;;;;18.23;3.20;;;4.80;99.90;;;;;;4956660;28;20399;-67
2023/01/15 10:38:52;;;;;;;33.72;3.70;;;4.50;99.90;;;;;;4960433;28;20498;-67
2023/01/15 10:41:36;;;;;;;15.98;2.38;;;4.60;99.90;;;;;;4973194;28;20034;-67
2023/01/15 10:44:10;;;;;;;42.35;5.55;;;4.70;99.90;;;;;;4963364;28;20031;-67
2023/01/15 10:46:39;;;;;;;47.10;4.38;;;4.90;99.90;;;;;;4971845;28;20030;-67
2023/01/15 10:49:17;;;;;;;29.88;4.85;;;4.90;99.90;;;;;;4956529;28;20031;-66
2023/01/15 10:51:52;;;;;;;40.20;3.97;;;4.90;99.90;;;;;;4957232;28;20031;-67
2023/01/15 10:54:32;;;;;;;33.70;5.13;;;5.00;99.90;;;;;;4976493;28;20106;-67
2023/01/15 10:57:10;;;;;;;38.75;4.93;;;5.10;99.90;;;;;;4974546;28;20027;-67
2023/01/15 11:00:09;;;;;;;36.80;3.78;;;5.00;99.90;;;;;;4971376;23;20497;-67
2023/01/15 11:02:49;;;;;;;34.10;4.63;;;4.90;99.90;;;;;;4994914;28;20178;-66
2023/01/15 11:05:20;;;;;;;46.92;5.63;;;4.80;99.90;;;;;;4976496;28;20089;-66
2023/01/15 11:07:48;;;;;;;54.20;8.30;;;4.70;99.90;;;;;;4976540;28;20027;-66
2023/01/15 11:10:17;;;;;;;45.05;6.05;;;4.90;99.90;;;;;;4980004;28;20486;-67
2023/01/15 11:21:23;;;;;;;32.13;5.25;;;5.30;99.90;;;;;;4995158;28;20037;-66
2023/01/15 11:23:50;;;;;;;24.20;4.53;;;5.40;99.90;;;;;;4995261;28;20034;-67
2023/01/15 11:26:27;;;;;;;48.95;6.35;;;5.40;99.90;;;;;;4995186;28;20030;-66
2023/01/15 11:28:55;;;;;;;49.67;5.32;;;5.40;99.90;;;;;;4994985;28;20023;-67
2023/01/15 11:31:21;;;;;;;26.33;4.80;;;5.30;99.90;;;;;;4995181;28;20022;-66
2023/01/15 11:34:02;;;;;;;31.35;5.10;;;5.40;99.90;;;;;;4995062;28;20160;-67
2023/01/15 11:36:28;;;;;;;36.45;4.00;;;5.40;99.90;;;;;;4995379;28;20042;-67
2023/01/15 11:38:54;;;;;;;37.22;4.70;;;5.40;99.90;;;;;;4994727;28;20109;-68
2023/01/15 11:41:22;;;;;;;29.35;4.80;;;5.30;99.90;;;;;;4994288;28;20029;-68
2023/01/15 11:52:23;;;;;;;28.45;3.65;;;5.40;99.90;;;;;;4994841;28;20033;-68
2023/01/15 11:54:52;;;;;;;21.42;4.35;;;5.40;99.90;;;;;;4994764;28;20033;-68
2023/01/15 11:57:27;;;;;;;33.90;4.93;;;5.40;99.90;;;;;;4994206;28;20030;-67
2023/01/15 11:59:52;;;;;;;36.35;4.28;;;5.60;99.90;;;;;;4994359;28;20108;-67
2023/01/15 12:02:30;;;;;;;24.17;3.90;;;5.60;99.90;;;;;;4994324;28;20478;-67
2023/01/15 12:05:01;;;;;;;33.75;5.78;;;5.60;99.90;;;;;;4994224;28;20440;-68
2023/01/15 12:07:28;;;;;;;44.60;6.55;;;5.60;99.90;;;;;;4994415;28;20029;-68
2023/01/15 12:10:14;;;;;;;47.67;5.97;;;5.50;99.90;;;;;;4994544;28;20051;-68
2023/01/15 12:12:54;;;;;;;45.67;6.03;;;5.40;99.90;;;;;;4994189;28;20026;-68
2023/01/15 12:15:50;;;;;;;45.20;6.63;;;5.20;99.90;;;;;;4994093;28;20036;-68
2023/01/15 12:18:37;;;;;;;39.35;5.78;;;4.90;99.90;;;;;;4994021;28;20057;-66
2023/01/15 12:21:04;;;;;;;36.13;4.38;;;4.60;99.90;;;;;;4994334;28;20371;-66
2023/01/15 12:24:00;;;;;;;35.53;6.13;;;4.50;99.90;;;;;;4993153;28;20041;-66
2023/01/15 12:26:30;;;;;;;47.50;6.20;;;4.40;99.90;;;;;;4993925;28;20068;-66
2023/01/15 12:29:04;;;;;;;23.13;3.42;;;4.20;99.90;;;;;;4993922;28;20027;-66
2023/01/15 12:31:37;;;;;;;19.33;2.63;;;4.00;99.90;;;;;;4994014;28;20019;-66
2023/01/15 12:34:44;;;;;;;30.02;4.00;;;3.90;99.90;;;;;;4994034;28;20027;-66
2023/01/15 12:37:19;;;;;;;46.20;5.00;;;3.90;99.90;;;;;;4979416;28;20069;-66
2023/01/15 12:39:54;;;;;;;46.83;5.15;;;4.00;99.90;;;;;;4993649;28;20072;-66
2023/01/15 12:45:25;;;;;;;36.65;5.38;;;4.20;99.90;;;;;;4994290;28;20046;-66
2023/01/15 12:48:01;;;;;;;59.78;6.70;;;4.40;99.90;;;;;;4994039;28;20014;-66
2023/01/15 12:50:38;;;;;;;46.47;6.18;;;4.50;99.90;;;;;;4993641;28;20433;-66
2023/01/15 12:53:09;;;;;;;46.65;6.13;;;4.60;99.90;;;;;;4993776;28;20018;-66
2023/01/15 12:55:41;;;;;;;50.90;5.72;;;4.70;99.90;;;;;;4993308;28;20030;-66
2023/01/15 12:58:16;;;;;;;45.90;4.85;;;4.80;99.90;;;;;;4997415;28;20022;-66
2023/01/15 13:00:42;;;;;;;36.08;6.45;;;4.90;99.90;;;;;;4997207;28;20118;-66
2023/01/15 13:03:27;;;;;;;55.45;8.43;;;5.00;99.90;;;;;;4997780;28;20031;-66
2023/01/15 13:05:57;;;;;;;49.80;5.70;;;5.00;99.90;;;;;;4998099;28;20041;-66
2023/01/15 13:08:53;;;;;;;39.67;7.70;;;5.00;99.90;;;;;;4997673;28;20027;-66
2023/01/15 13:11:19;;;;;;;38.85;5.45;;;5.00;99.90;;;;;;4983579;28;20023;-66
2023/01/15 13:13:56;;;;;;;40.28;5.63;;;5.00;99.90;;;;;;4985285;28;20109;-66
2023/01/15 13:17:04;;;;;;;46.65;5.50;;;5.00;99.90;;;;;;4981619;28;20072;-67
2023/01/15 13:20:03;;;;;;;47.97;7.90;;;4.90;99.90;;;;;;4982064;28;20034;-67
2023/01/15 13:22:31;;;;;;;55.17;6.68;;;4.90;99.90;;;;;;4987440;28;20408;-67
2023/01/15 13:25:04;;;;;;;64.28;8.73;;;4.90;99.90;;;;;;4988524;28;22767;-67
2023/01/15 13:27:44;;;;;;;47.42;6.90;;;4.90;99.90;;;;;;4987688;28;20113;-67
2023/01/15 13:30:25;;;;;;;55.40;6.30;;;5.00;99.90;;;;;;4987448;28;20027;-68
2023/01/15 13:32:55;;;;;;;61.67;7.35;;;5.00;99.90;;;;;;4980767;28;20037;-68
2023/01/15 13:35:42;;;;;;;67.32;7.75;;;5.00;99.90;;;;;;4984693;28;20073;-68
2023/01/15 13:38:19;;;;;;;56.78;6.53;;;5.00;99.90;;;;;;4987520;28;20027;-68
2023/01/15 13:40:51;;;;;;;61.65;8.50;;;5.10;99.90;;;;;;4983337;28;20467;-68
2023/01/15 13:43:29;;;;;;;56.00;8.20;;;5.10;99.90;;;;;;4985291;28;20082;-68
2023/01/15 13:45:56;;;;;;;55.20;7.15;;;5.10;99.90;;;;;;4983839;28;20489;-68
2023/01/15 13:48:39;;;;;;;75.32;8.13;;;5.10;99.90;;;;;;4992175;28;20025;-68
2023/01/15 13:51:16;;;;;;;75.25;8.48;;;5.00;99.90;;;;;;4983198;28;20387;-67
2023/01/15 13:53:48;;;;;;;65.15;7.82;;;5.10;99.90;;;;;;4982244;28;20048;-67
2023/01/15 13:56:26;;;;;;;62.67;9.32;;;5.20;99.90;;;;;;4983257;28;20386;-67
2023/01/15 13:58:57;;;;;;;84.57;9.50;;;5.20;99.90;;;;;;4988818;28;20521;-67